sensor_id;sensor_type;location;lat;lon;timestamp;temperature;humidity
76040;SHT30;64736;50.462;4.850;2023-06-22T00:02:18;20.80;71.23
76040;SHT30;64736;50.462;4.850;2023-06-22T00:04:44;20.81;71.46
76040;SHT30;64736;50.462;4.850;2023-06-22T00:07:10;20.74;71.60
76040;SHT30;64736;50.462;4.850;2023-06-22T00:09:36;20.83;71.29
76040;SHT30;64736;50.462;4.850;2023-06-22T00:12:02;20.90;71.63
76040;SHT30;64736;50.462;4.850;2023-06-22T00:14:28;20.78;71.58
76040;SHT30;64736;50.462;4.850;2023-06-22T00:16:53;20.78;71.70
76040;SHT30;64736;50.462;4.850;2023-06-22T00:19:23;20.90;71.09
76040;SHT30;64736;50.462;4.850;2023-06-22T00:21:50;21.26;71.49
76040;SHT30;64736;50.462;4.850;2023-06-22T00:24:19;21.28;71.30
76040;SHT30;64736;50.462;4.850;2023-06-22T00:26:45;21.06;71.63
76040;SHT30;64736;50.462;4.850;2023-06-22T00:29:12;21.09;72.01
76040;SHT30;64736;50.462;4.850;2023-06-22T00:31:37;21.06;72.03
76040;SHT30;64736;50.462;4.850;2023-06-22T00:34:03;20.95;72.30
76040;SHT30;64736;50.462;4.850;2023-06-22T00:36:29;20.94;72.30
76040;SHT30;64736;50.462;4.850;2023-06-22T00:38:55;21.01;72.00
76040;SHT30;64736;50.462;4.850;2023-06-22T00:41:20;20.74;73.00
76040;SHT30;64736;50.462;4.850;2023-06-22T00:43:46;21.04;72.30
76040;SHT30;64736;50.462;4.850;2023-06-22T00:46:12;21.04;72.03
76040;SHT30;64736;50.462;4.850;2023-06-22T00:48:38;20.88;72.27
76040;SHT30;64736;50.462;4.850;2023-06-22T00:51:05;20.94;71.95
76040;SHT30;64736;50.462;4.850;2023-06-22T00:53:31;20.95;71.65
76040;SHT30;64736;50.462;4.850;2023-06-22T00:56:00;20.99;71.72
76040;SHT30;64736;50.462;4.850;2023-06-22T00:58:29;20.94;71.75
76040;SHT30;64736;50.462;4.850;2023-06-22T01:00:55;20.57;72.92
76040;SHT30;64736;50.462;4.850;2023-06-22T01:03:21;20.51;72.58
76040;SHT30;64736;50.462;4.850;2023-06-22T01:05:47;20.66;72.83
76040;SHT30;64736;50.462;4.850;2023-06-22T01:08:31;20.28;72.97
76040;SHT30;64736;50.462;4.850;2023-06-22T01:11:22;20.23;72.79
76040;SHT30;64736;50.462;4.850;2023-06-22T01:14:15;20.34;72.28
76040;SHT30;64736;50.462;4.850;2023-06-22T01:16:45;20.41;72.17
76040;SHT30;64736;50.462;4.850;2023-06-22T01:21:45;20.29;72.37
76040;SHT30;64736;50.462;4.850;2023-06-22T01:24:26;20.16;72.87
76040;SHT30;64736;50.462;4.850;2023-06-22T01:29:26;20.15;73.07
76040;SHT30;64736;50.462;4.850;2023-06-22T01:31:54;20.25;72.67
76040;SHT30;64736;50.462;4.850;2023-06-22T01:34:23;20.25;72.86
76040;SHT30;64736;50.462;4.850;2023-06-22T01:36:50;20.28;72.51
76040;SHT30;64736;50.462;4.850;2023-06-22T01:39:17;20.34;72.69
76040;SHT30;64736;50.462;4.850;2023-06-22T01:41:43;20.61;72.42
76040;SHT30;64736;50.462;4.850;2023-06-22T01:44:09;20.22;72.79
76040;SHT30;64736;50.462;4.850;2023-06-22T01:46:36;20.09;73.00
76040;SHT30;64736;50.462;4.850;2023-06-22T01:49:03;19.99;73.15
76040;SHT30;64736;50.462;4.850;2023-06-22T01:51:30;20.30;72.15
76040;SHT30;64736;50.462;4.850;2023-06-22T01:53:55;20.23;72.32
76040;SHT30;64736;50.462;4.850;2023-06-22T01:56:21;20.43;73.28
76040;SHT30;64736;50.462;4.850;2023-06-22T01:59:15;20.36;73.59
76040;SHT30;64736;50.462;4.850;2023-06-22T02:01:57;20.25;73.52
76040;SHT30;64736;50.462;4.850;2023-06-22T02:04:27;20.39;73.71
76040;SHT30;64736;50.462;4.850;2023-06-22T02:06:59;20.61;72.57
76040;SHT30;64736;50.462;4.850;2023-06-22T02:09:29;20.70;71.67
76040;SHT30;64736;50.462;4.850;2023-06-22T02:11:57;20.71;71.49
76040;SHT30;64736;50.462;4.850;2023-06-22T02:14:24;20.70;71.70
76040;SHT30;64736;50.462;4.850;2023-06-22T02:16:51;20.71;71.65
76040;SHT30;64736;50.462;4.850;2023-06-22T02:19:23;20.64;71.69
76040;SHT30;64736;50.462;4.850;2023-06-22T02:21:50;20.67;71.97
76040;SHT30;64736;50.462;4.850;2023-06-22T02:24:15;20.64;71.54
76040;SHT30;64736;50.462;4.850;2023-06-22T02:26:42;21.09;70.07
76040;SHT30;64736;50.462;4.850;2023-06-22T02:29:10;20.92;70.85
76040;SHT30;64736;50.462;4.850;2023-06-22T02:31:35;20.88;70.58
76040;SHT30;64736;50.462;4.850;2023-06-22T02:34:01;21.05;70.97
76040;SHT30;64736;50.462;4.850;2023-06-22T02:36:27;21.06;73.23
76040;SHT30;64736;50.462;4.850;2023-06-22T02:38:57;20.80;77.48
76040;SHT30;64736;50.462;4.850;2023-06-22T02:41:24;20.71;79.11
76040;SHT30;64736;50.462;4.850;2023-06-22T02:43:50;20.49;80.67
76040;SHT30;64736;50.462;4.850;2023-06-22T02:46:15;20.32;81.17
76040;SHT30;64736;50.462;4.850;2023-06-22T02:48:41;20.04;81.85
76040;SHT30;64736;50.462;4.850;2023-06-22T02:51:07;19.99;82.75
76040;SHT30;64736;50.462;4.850;2023-06-22T02:53:34;19.54;83.62
76040;SHT30;64736;50.462;4.850;2023-06-22T02:56:01;19.78;83.72
76040;SHT30;64736;50.462;4.850;2023-06-22T02:58:31;19.78;83.30
76040;SHT30;64736;50.462;4.850;2023-06-22T03:01:05;19.77;83.34
76040;SHT30;64736;50.462;4.850;2023-06-22T03:03:31;19.70;83.14
76040;SHT30;64736;50.462;4.850;2023-06-22T03:05:57;19.50;83.57
76040;SHT30;64736;50.462;4.850;2023-06-22T03:08:22;19.43;83.84
76040;SHT30;64736;50.462;4.850;2023-06-22T03:10:48;19.44;83.30
76040;SHT30;64736;50.462;4.850;2023-06-22T03:13:14;19.30;83.96
76040;SHT30;64736;50.462;4.850;2023-06-22T03:15:39;19.31;83.52
76040;SHT30;64736;50.462;4.850;2023-06-22T03:18:05;19.10;83.02
76040;SHT30;64736;50.462;4.850;2023-06-22T03:20:31;19.40;83.60
76040;SHT30;64736;50.462;4.850;2023-06-22T03:22:59;19.49;82.90
76040;SHT30;64736;50.462;4.850;2023-06-22T03:25:25;19.27;83.64
76040;SHT30;64736;50.462;4.850;2023-06-22T03:27:50;19.33;83.44
76040;SHT30;64736;50.462;4.850;2023-06-22T03:30:16;19.17;84.16
76040;SHT30;64736;50.462;4.850;2023-06-22T03:32:42;18.99;84.30
76040;SHT30;64736;50.462;4.850;2023-06-22T03:35:08;18.96;84.46
76040;SHT30;64736;50.462;4.850;2023-06-22T03:37:34;18.89;84.17
76040;SHT30;64736;50.462;4.850;2023-06-22T03:40:00;18.98;83.80
76040;SHT30;64736;50.462;4.850;2023-06-22T03:42:26;18.88;84.00
76040;SHT30;64736;50.462;4.850;2023-06-22T03:44:52;18.88;84.24
76040;SHT30;64736;50.462;4.850;2023-06-22T03:47:18;18.92;85.10
76040;SHT30;64736;50.462;4.850;2023-06-22T03:49:43;18.92;84.64
76040;SHT30;64736;50.462;4.850;2023-06-22T03:52:09;18.85;85.07
76040;SHT30;64736;50.462;4.850;2023-06-22T03:54:36;18.84;84.81
76040;SHT30;64736;50.462;4.850;2023-06-22T03:57:02;18.81;85.16
76040;SHT30;64736;50.462;4.850;2023-06-22T03:59:28;18.96;85.20
76040;SHT30;64736;50.462;4.850;2023-06-22T04:01:53;18.88;85.35
76040;SHT30;64736;50.462;4.850;2023-06-22T04:04:20;18.85;85.63
76040;SHT30;64736;50.462;4.850;2023-06-22T04:06:46;18.92;85.33
76040;SHT30;64736;50.462;4.850;2023-06-22T04:09:12;18.92;85.63
76040;SHT30;64736;50.462;4.850;2023-06-22T04:11:37;18.93;85.21
76040;SHT30;64736;50.462;4.850;2023-06-22T04:14:03;18.86;85.95
76040;SHT30;64736;50.462;4.850;2023-06-22T04:16:29;18.86;85.90
76040;SHT30;64736;50.462;4.850;2023-06-22T04:18:55;18.96;85.51
76040;SHT30;64736;50.462;4.850;2023-06-22T04:21:20;18.84;85.28
76040;SHT30;64736;50.462;4.850;2023-06-22T04:23:47;18.92;85.73
76040;SHT30;64736;50.462;4.850;2023-06-22T04:26:13;18.93;85.42
76040;SHT30;64736;50.462;4.850;2023-06-22T04:28:42;18.91;85.63
76040;SHT30;64736;50.462;4.850;2023-06-22T04:31:07;18.91;86.21
76040;SHT30;64736;50.462;4.850;2023-06-22T04:33:33;18.96;86.12
76040;SHT30;64736;50.462;4.850;2023-06-22T04:35:59;18.82;86.02
76040;SHT30;64736;50.462;4.850;2023-06-22T04:38:29;18.93;86.15
76040;SHT30;64736;50.462;4.850;2023-06-22T04:40:59;18.89;86.26
76040;SHT30;64736;50.462;4.850;2023-06-22T04:43:26;18.99;86.21
76040;SHT30;64736;50.462;4.850;2023-06-22T04:45:58;18.81;86.15
76040;SHT30;64736;50.462;4.850;2023-06-22T04:48:30;18.99;86.51
76040;SHT30;64736;50.462;4.850;2023-06-22T04:50:59;19.09;85.67
76040;SHT30;64736;50.462;4.850;2023-06-22T04:53:30;19.07;86.42
76040;SHT30;64736;50.462;4.850;2023-06-22T04:55:56;19.17;85.97
76040;SHT30;64736;50.462;4.850;2023-06-22T04:58:22;19.19;85.87
76040;SHT30;64736;50.462;4.850;2023-06-22T05:00:47;19.23;86.27
76040;SHT30;64736;50.462;4.850;2023-06-22T05:03:13;19.17;86.17
76040;SHT30;64736;50.462;4.850;2023-06-22T05:05:39;19.23;85.67
76040;SHT30;64736;50.462;4.850;2023-06-22T05:08:05;19.33;85.69
76040;SHT30;64736;50.462;4.850;2023-06-22T05:10:33;19.37;85.65
76040;SHT30;64736;50.462;4.850;2023-06-22T05:12:59;19.23;85.24
76040;SHT30;64736;50.462;4.850;2023-06-22T05:15:24;19.43;85.47
76040;SHT30;64736;50.462;4.850;2023-06-22T05:17:53;19.43;85.77
76040;SHT30;64736;50.462;4.850;2023-06-22T05:20:19;19.37;85.54
76040;SHT30;64736;50.462;4.850;2023-06-22T05:22:45;19.55;85.46
76040;SHT30;64736;50.462;4.850;2023-06-22T05:25:11;19.70;85.14
76040;SHT30;64736;50.462;4.850;2023-06-22T05:27:37;19.95;84.92
76040;SHT30;64736;50.462;4.850;2023-06-22T05:30:07;19.61;85.68
76040;SHT30;64736;50.462;4.850;2023-06-22T05:32:33;19.86;85.16
76040;SHT30;64736;50.462;4.850;2023-06-22T05:34:59;20.05;84.16
76040;SHT30;64736;50.462;4.850;2023-06-22T05:37:25;19.58;85.45
76040;SHT30;64736;50.462;4.850;2023-06-22T05:39:51;19.51;83.37
76040;SHT30;64736;50.462;4.850;2023-06-22T05:42:17;20.25;84.34
76040;SHT30;64736;50.462;4.850;2023-06-22T05:44:43;20.39;83.77
76040;SHT30;64736;50.462;4.850;2023-06-22T05:47:09;20.26;83.68
76040;SHT30;64736;50.462;4.850;2023-06-22T05:49:34;19.93;84.18
76040;SHT30;64736;50.462;4.850;2023-06-22T05:52:00;20.13;85.22
76040;SHT30;64736;50.462;4.850;2023-06-22T05:54:29;19.83;84.34
76040;SHT30;64736;50.462;4.850;2023-06-22T05:56:55;20.05;84.77
76040;SHT30;64736;50.462;4.850;2023-06-22T05:59:21;19.95;82.30
76040;SHT30;64736;50.462;4.850;2023-06-22T06:01:47;19.83;81.05
76040;SHT30;64736;50.462;4.850;2023-06-22T06:04:19;19.70;80.35
76040;SHT30;64736;50.462;4.850;2023-06-22T06:06:45;19.82;81.33
76040;SHT30;64736;50.462;4.850;2023-06-22T06:09:13;19.98;81.28
76040;SHT30;64736;50.462;4.850;2023-06-22T06:11:39;20.01;81.12
76040;SHT30;64736;50.462;4.850;2023-06-22T06:14:05;19.70;81.55
76040;SHT30;64736;50.462;4.850;2023-06-22T06:16:32;19.67;80.43
76040;SHT30;64736;50.462;4.850;2023-06-22T06:18:57;19.62;79.53
76040;SHT30;64736;50.462;4.850;2023-06-22T06:21:24;19.75;79.53
76040;SHT30;64736;50.462;4.850;2023-06-22T06:23:49;19.65;79.65
76040;SHT30;64736;50.462;4.850;2023-06-22T06:26:15;19.75;78.82
76040;SHT30;64736;50.462;4.850;2023-06-22T06:28:52;20.15;79.27
76040;SHT30;64736;50.462;4.850;2023-06-22T06:31:18;20.05;78.84
76040;SHT30;64736;50.462;4.850;2023-06-22T06:33:47;19.75;79.00
76040;SHT30;64736;50.462;4.850;2023-06-22T06:36:12;19.99;78.52
76040;SHT30;64736;50.462;4.850;2023-06-22T06:38:38;19.88;78.51
76040;SHT30;64736;50.462;4.850;2023-06-22T06:41:03;20.13;80.47
76040;SHT30;64736;50.462;4.850;2023-06-22T06:43:29;19.92;77.69
76040;SHT30;64736;50.462;4.850;2023-06-22T06:45:54;19.79;78.46
76040;SHT30;64736;50.462;4.850;2023-06-22T06:48:20;19.72;78.88
76040;SHT30;64736;50.462;4.850;2023-06-22T06:50:46;19.65;79.18
76040;SHT30;64736;50.462;4.850;2023-06-22T06:53:11;19.88;78.95
76040;SHT30;64736;50.462;4.850;2023-06-22T06:55:37;19.71;78.92
76040;SHT30;64736;50.462;4.850;2023-06-22T06:58:03;19.82;78.77
76040;SHT30;64736;50.462;4.850;2023-06-22T07:00:33;19.93;78.63
76040;SHT30;64736;50.462;4.850;2023-06-22T07:02:58;19.95;78.21
76040;SHT30;64736;50.462;4.850;2023-06-22T07:05:24;20.02;78.25
76040;SHT30;64736;50.462;4.850;2023-06-22T07:07:49;20.18;77.87
76040;SHT30;64736;50.462;4.850;2023-06-22T07:10:15;20.41;77.65
76040;SHT30;64736;50.462;4.850;2023-06-22T07:12:41;20.32;77.92
76040;SHT30;64736;50.462;4.850;2023-06-22T07:15:08;20.37;77.70
76040;SHT30;64736;50.462;4.850;2023-06-22T07:17:35;20.61;77.33
76040;SHT30;64736;50.462;4.850;2023-06-22T07:20:01;20.36;77.19
76040;SHT30;64736;50.462;4.850;2023-06-22T07:22:27;20.30;77.06
76040;SHT30;64736;50.462;4.850;2023-06-22T07:24:53;20.36;77.14
76040;SHT30;64736;50.462;4.850;2023-06-22T07:27:18;20.49;76.20
76040;SHT30;64736;50.462;4.850;2023-06-22T07:29:45;20.61;76.71
76040;SHT30;64736;50.462;4.850;2023-06-22T07:32:10;20.66;76.74
76040;SHT30;64736;50.462;4.850;2023-06-22T07:34:36;20.92;76.06
76040;SHT30;64736;50.462;4.850;2023-06-22T07:37:02;20.80;76.35
76040;SHT30;64736;50.462;4.850;2023-06-22T07:39:27;20.66;76.71
76040;SHT30;64736;50.462;4.850;2023-06-22T07:41:53;20.60;76.75
76040;SHT30;64736;50.462;4.850;2023-06-22T07:44:19;20.68;76.70
76040;SHT30;64736;50.462;4.850;2023-06-22T07:46:45;20.71;76.95
76040;SHT30;64736;50.462;4.850;2023-06-22T07:49:11;20.66;76.56
76040;SHT30;64736;50.462;4.850;2023-06-22T07:51:37;20.77;76.74
76040;SHT30;64736;50.462;4.850;2023-06-22T07:54:03;20.87;76.82
76040;SHT30;64736;50.462;4.850;2023-06-22T07:56:28;20.84;76.63
76040;SHT30;64736;50.462;4.850;2023-06-22T07:58:54;21.12;76.22
76040;SHT30;64736;50.462;4.850;2023-06-22T08:01:20;20.92;76.97
76040;SHT30;64736;50.462;4.850;2023-06-22T08:03:48;20.92;76.81
76040;SHT30;64736;50.462;4.850;2023-06-22T08:06:14;20.88;77.22
76040;SHT30;64736;50.462;4.850;2023-06-22T08:08:40;20.87;77.36
76040;SHT30;64736;50.462;4.850;2023-06-22T08:11:06;20.87;77.54
76040;SHT30;64736;50.462;4.850;2023-06-22T08:13:31;20.84;77.38
76040;SHT30;64736;50.462;4.850;2023-06-22T08:15:57;20.94;77.26
76040;SHT30;64736;50.462;4.850;2023-06-22T08:18:22;20.85;77.58
76040;SHT30;64736;50.462;4.850;2023-06-22T08:20:48;20.90;77.35
76040;SHT30;64736;50.462;4.850;2023-06-22T08:23:14;20.95;76.98
76040;SHT30;64736;50.462;4.850;2023-06-22T08:25:40;20.73;77.77
76040;SHT30;64736;50.462;4.850;2023-06-22T08:28:05;20.84;77.63
76040;SHT30;64736;50.462;4.850;2023-06-22T08:30:31;21.08;77.04
76040;SHT30;64736;50.462;4.850;2023-06-22T08:32:57;20.97;77.38
76040;SHT30;64736;50.462;4.850;2023-06-22T08:35:23;20.94;78.21
76040;SHT30;64736;50.462;4.850;2023-06-22T08:37:49;21.18;78.77
76040;SHT30;64736;50.462;4.850;2023-06-22T08:40:22;20.85;79.19
76040;SHT30;64736;50.462;4.850;2023-06-22T08:42:48;20.83;81.08
76040;SHT30;64736;50.462;4.850;2023-06-22T08:45:14;20.87;80.88
76040;SHT30;64736;50.462;4.850;2023-06-22T08:47:41;20.63;81.11
76040;SHT30;64736;50.462;4.850;2023-06-22T08:50:07;20.67;80.94
76040;SHT30;64736;50.462;4.850;2023-06-22T08:52:34;20.54;80.42
76040;SHT30;64736;50.462;4.850;2023-06-22T08:55:00;20.54;80.60
76040;SHT30;64736;50.462;4.850;2023-06-22T08:57:27;21.08;80.58
76040;SHT30;64736;50.462;4.850;2023-06-22T08:59:53;21.24;81.81
76040;SHT30;64736;50.462;4.850;2023-06-22T09:02:19;21.60;79.57
76040;SHT30;64736;50.462;4.850;2023-06-22T09:04:48;21.64;80.66
76040;SHT30;64736;50.462;4.850;2023-06-22T09:07:15;21.72;81.41
76040;SHT30;64736;50.462;4.850;2023-06-22T09:09:47;21.39;83.56
76040;SHT30;64736;50.462;4.850;2023-06-22T09:12:13;20.84;82.61
76040;SHT30;64736;50.462;4.850;2023-06-22T09:14:38;21.08;85.08
76040;SHT30;64736;50.462;4.850;2023-06-22T09:17:04;21.52;84.85
76040;SHT30;64736;50.462;4.850;2023-06-22T09:19:30;21.31;87.38
76040;SHT30;64736;50.462;4.850;2023-06-22T09:21:55;20.87;90.01
76040;SHT30;64736;50.462;4.850;2023-06-22T09:24:21;20.36;91.21
76040;SHT30;64736;50.462;4.850;2023-06-22T09:26:47;20.34;93.37
76040;SHT30;64736;50.462;4.850;2023-06-22T09:29:12;20.13;94.54
76040;SHT30;64736;50.462;4.850;2023-06-22T09:31:38;19.96;95.16
76040;SHT30;64736;50.462;4.850;2023-06-22T09:34:03;19.77;95.69
76040;SHT30;64736;50.462;4.850;2023-06-22T09:36:30;19.67;96.06
76040;SHT30;64736;50.462;4.850;2023-06-22T09:38:56;19.62;96.45
76040;SHT30;64736;50.462;4.850;2023-06-22T09:41:24;19.54;96.78
76040;SHT30;64736;50.462;4.850;2023-06-22T09:43:50;19.58;97.07
76040;SHT30;64736;50.462;4.850;2023-06-22T09:46:16;19.46;97.25
76040;SHT30;64736;50.462;4.850;2023-06-22T09:48:42;19.03;97.31
76040;SHT30;64736;50.462;4.850;2023-06-22T09:51:08;18.72;97.32
76040;SHT30;64736;50.462;4.850;2023-06-22T09:53:35;19.12;97.51
76040;SHT30;64736;50.462;4.850;2023-06-22T09:56:01;18.64;97.60
76040;SHT30;64736;50.462;4.850;2023-06-22T09:58:27;18.59;97.78
76040;SHT30;64736;50.462;4.850;2023-06-22T10:00:53;18.34;98.07
76040;SHT30;64736;50.462;4.850;2023-06-22T10:03:20;18.36;98.45
76040;SHT30;64736;50.462;4.850;2023-06-22T10:05:45;18.41;98.77
76040;SHT30;64736;50.462;4.850;2023-06-22T10:08:11;18.40;98.72
76040;SHT30;64736;50.462;4.850;2023-06-22T10:10:37;18.37;98.73
76040;SHT30;64736;50.462;4.850;2023-06-22T10:13:08;18.69;98.67
76040;SHT30;64736;50.462;4.850;2023-06-22T10:15:35;18.69;98.34
76040;SHT30;64736;50.462;4.850;2023-06-22T10:18:00;18.76;97.99
76040;SHT30;64736;50.462;4.850;2023-06-22T10:20:26;19.07;97.46
76040;SHT30;64736;50.462;4.850;2023-06-22T10:22:53;18.93;96.49
76040;SHT30;64736;50.462;4.850;2023-06-22T10:25:19;18.82;95.72
76040;SHT30;64736;50.462;4.850;2023-06-22T10:27:44;18.89;95.81
76040;SHT30;64736;50.462;4.850;2023-06-22T10:30:12;19.10;95.75
76040;SHT30;64736;50.462;4.850;2023-06-22T10:32:39;19.00;95.47
76040;SHT30;64736;50.462;4.850;2023-06-22T10:35:05;19.17;95.48
76040;SHT30;64736;50.462;4.850;2023-06-22T10:37:31;19.12;95.28
76040;SHT30;64736;50.462;4.850;2023-06-22T10:39:57;19.23;95.67
76040;SHT30;64736;50.462;4.850;2023-06-22T10:42:23;19.20;95.51
76040;SHT30;64736;50.462;4.850;2023-06-22T10:44:48;19.38;95.50
76040;SHT30;64736;50.462;4.850;2023-06-22T10:47:14;19.17;95.38
76040;SHT30;64736;50.462;4.850;2023-06-22T10:49:40;19.27;95.27
76040;SHT30;64736;50.462;4.850;2023-06-22T10:52:07;19.19;94.85
76040;SHT30;64736;50.462;4.850;2023-06-22T10:54:34;19.23;94.88
76040;SHT30;64736;50.462;4.850;2023-06-22T10:57:00;19.28;94.70
76040;SHT30;64736;50.462;4.850;2023-06-22T10:59:26;19.34;94.35
76040;SHT30;64736;50.462;4.850;2023-06-22T11:01:53;19.53;93.79
76040;SHT30;64736;50.462;4.850;2023-06-22T11:04:18;19.67;93.56
76040;SHT30;64736;50.462;4.850;2023-06-22T11:06:48;19.71;93.84
76040;SHT30;64736;50.462;4.850;2023-06-22T11:09:14;19.61;93.97
76040;SHT30;64736;50.462;4.850;2023-06-22T11:11:47;19.37;93.18
76040;SHT30;64736;50.462;4.850;2023-06-22T11:14:13;19.44;93.49
76040;SHT30;64736;50.462;4.850;2023-06-22T11:16:38;19.37;93.59
76040;SHT30;64736;50.462;4.850;2023-06-22T11:19:05;19.30;93.51
76040;SHT30;64736;50.462;4.850;2023-06-22T11:21:31;19.35;93.82
76040;SHT30;64736;50.462;4.850;2023-06-22T11:23:57;19.31;94.03
76040;SHT30;64736;50.462;4.850;2023-06-22T11:26:24;19.05;94.08
76040;SHT30;64736;50.462;4.850;2023-06-22T11:28:53;19.12;94.63
76040;SHT30;64736;50.462;4.850;2023-06-22T11:31:19;19.06;94.12
76040;SHT30;64736;50.462;4.850;2023-06-22T11:33:44;19.06;94.70
76040;SHT30;64736;50.462;4.850;2023-06-22T11:36:11;19.03;94.42
76040;SHT30;64736;50.462;4.850;2023-06-22T11:38:37;18.98;94.64
76040;SHT30;64736;50.462;4.850;2023-06-22T11:41:08;18.91;94.62
76040;SHT30;64736;50.462;4.850;2023-06-22T11:43:34;18.93;94.77
76040;SHT30;64736;50.462;4.850;2023-06-22T11:46:01;18.69;95.88
76040;SHT30;64736;50.462;4.850;2023-06-22T11:48:27;18.71;96.12
76040;SHT30;64736;50.462;4.850;2023-06-22T11:50:53;18.59;94.81
76040;SHT30;64736;50.462;4.850;2023-06-22T11:53:20;18.71;94.21
76040;SHT30;64736;50.462;4.850;2023-06-22T11:55:47;18.81;94.19
76040;SHT30;64736;50.462;4.850;2023-06-22T11:58:14;18.72;93.60
76040;SHT30;64736;50.462;4.850;2023-06-22T12:00:40;18.78;94.11
76040;SHT30;64736;50.462;4.850;2023-06-22T12:03:07;18.43;98.40
76040;SHT30;64736;50.462;4.850;2023-06-22T12:05:32;18.26;97.47
76040;SHT30;64736;50.462;4.850;2023-06-22T12:07:58;18.14;97.50
76040;SHT30;64736;50.462;4.850;2023-06-22T12:10:25;18.01;98.36
76040;SHT30;64736;50.462;4.850;2023-06-22T12:12:51;18.10;98.94
76040;SHT30;64736;50.462;4.850;2023-06-22T12:15:17;17.96;99.09
76040;SHT30;64736;50.462;4.850;2023-06-22T12:17:42;17.97;99.22
76040;SHT30;64736;50.462;4.850;2023-06-22T12:20:08;17.79;98.88
76040;SHT30;64736;50.462;4.850;2023-06-22T12:22:34;17.91;98.48
76040;SHT30;64736;50.462;4.850;2023-06-22T12:25:01;17.86;95.55
76040;SHT30;64736;50.462;4.850;2023-06-22T12:27:27;17.79;95.52
76040;SHT30;64736;50.462;4.850;2023-06-22T12:29:52;17.80;95.18
76040;SHT30;64736;50.462;4.850;2023-06-22T12:32:18;17.93;95.16
76040;SHT30;64736;50.462;4.850;2023-06-22T12:34:44;17.73;95.27
76040;SHT30;64736;50.462;4.850;2023-06-22T12:37:10;17.72;95.30
76040;SHT30;64736;50.462;4.850;2023-06-22T12:39:36;17.61;95.32
76040;SHT30;64736;50.462;4.850;2023-06-22T13:22:34;22.56;89.48
76040;SHT30;64736;50.462;4.850;2023-06-22T13:27:39;21.22;92.48
76040;SHT30;64736;50.462;4.850;2023-06-22T13:30:05;19.05;95.51
76040;SHT30;64736;50.462;4.850;2023-06-22T13:32:31;18.93;95.65
76040;SHT30;64736;50.462;4.850;2023-06-22T13:34:57;19.60;95.44
76040;SHT30;64736;50.462;4.850;2023-06-22T13:37:23;18.71;95.30
76040;SHT30;64736;50.462;4.850;2023-06-22T13:39:48;18.58;95.11
76040;SHT30;64736;50.462;4.850;2023-06-22T13:44:39;20.33;95.18
76040;SHT30;64736;50.462;4.850;2023-06-22T13:49:34;21.24;85.06
76040;SHT30;64736;50.462;4.850;2023-06-22T13:52:00;20.53;86.44
76040;SHT30;64736;50.462;4.850;2023-06-22T13:54:25;20.50;87.00
76040;SHT30;64736;50.462;4.850;2023-06-22T13:56:51;20.63;84.81
76040;SHT30;64736;50.462;4.850;2023-06-22T13:59:17;20.30;84.76
76040;SHT30;64736;50.462;4.850;2023-06-22T14:01:42;18.01;92.01
76040;SHT30;64736;50.462;4.850;2023-06-22T14:04:09;17.75;92.81
76040;SHT30;64736;50.462;4.850;2023-06-22T14:06:35;17.73;93.25
76040;SHT30;64736;50.462;4.850;2023-06-22T14:09:00;17.68;93.40
76040;SHT30;64736;50.462;4.850;2023-06-22T14:11:29;17.72;93.46
76040;SHT30;64736;50.462;4.850;2023-06-22T14:13:55;17.78;93.59
76040;SHT30;64736;50.462;4.850;2023-06-22T14:16:20;17.76;93.30
76040;SHT30;64736;50.462;4.850;2023-06-22T14:18:46;17.89;93.03
76040;SHT30;64736;50.462;4.850;2023-06-22T14:21:12;17.97;92.86
76040;SHT30;64736;50.462;4.850;2023-06-22T14:23:37;18.10;92.98
76040;SHT30;64736;50.462;4.850;2023-06-22T14:26:03;17.94;93.13
76040;SHT30;64736;50.462;4.850;2023-06-22T14:28:29;18.03;92.94
76040;SHT30;64736;50.462;4.850;2023-06-22T14:30:54;18.11;92.81
76040;SHT30;64736;50.462;4.850;2023-06-22T14:33:21;18.13;92.71
76040;SHT30;64736;50.462;4.850;2023-06-22T14:35:47;18.20;92.74
76040;SHT30;64736;50.462;4.850;2023-06-22T14:38:13;18.14;92.75
76040;SHT30;64736;50.462;4.850;2023-06-22T14:40:38;18.06;92.61
76040;SHT30;64736;50.462;4.850;2023-06-22T14:43:04;18.04;92.75
76040;SHT30;64736;50.462;4.850;2023-06-22T14:45:29;18.16;93.01
76040;SHT30;64736;50.462;4.850;2023-06-22T14:47:55;18.09;92.66
76040;SHT30;64736;50.462;4.850;2023-06-22T14:50:21;18.09;92.75
76040;SHT30;64736;50.462;4.850;2023-06-22T14:52:46;18.20;92.24
76040;SHT30;64736;50.462;4.850;2023-06-22T14:55:12;18.03;92.78
76040;SHT30;64736;50.462;4.850;2023-06-22T14:57:38;18.04;92.61
76040;SHT30;64736;50.462;4.850;2023-06-22T15:00:04;18.18;92.75
76040;SHT30;64736;50.462;4.850;2023-06-22T15:02:31;18.20;92.84
76040;SHT30;64736;50.462;4.850;2023-06-22T15:04:57;18.20;92.43
76040;SHT30;64736;50.462;4.850;2023-06-22T15:07:23;18.30;92.54
76040;SHT30;64736;50.462;4.850;2023-06-22T15:09:49;18.24;92.37
76040;SHT30;64736;50.462;4.850;2023-06-22T15:12:14;18.10;92.81
76040;SHT30;64736;50.462;4.850;2023-06-22T15:14:41;18.27;92.90
76040;SHT30;64736;50.462;4.850;2023-06-22T15:17:08;18.34;93.11
76040;SHT30;64736;50.462;4.850;2023-06-22T15:19:39;18.45;92.67
76040;SHT30;64736;50.462;4.850;2023-06-22T15:22:06;18.34;92.45
76040;SHT30;64736;50.462;4.850;2023-06-22T15:24:33;18.26;92.10
76040;SHT30;64736;50.462;4.850;2023-06-22T15:26:59;18.40;91.94
76040;SHT30;64736;50.462;4.850;2023-06-22T15:29:24;18.48;91.76
76040;SHT30;64736;50.462;4.850;2023-06-22T15:31:51;18.33;91.46
76040;SHT30;64736;50.462;4.850;2023-06-22T15:34:17;18.47;91.29
76040;SHT30;64736;50.462;4.850;2023-06-22T15:36:43;18.47;91.50
76040;SHT30;64736;50.462;4.850;2023-06-22T15:39:11;18.57;91.18
76040;SHT30;64736;50.462;4.850;2023-06-22T15:41:40;18.45;91.32
76040;SHT30;64736;50.462;4.850;2023-06-22T15:44:07;18.48;91.37
76040;SHT30;64736;50.462;4.850;2023-06-22T15:46:32;18.48;91.32
76040;SHT30;64736;50.462;4.850;2023-06-22T15:48:58;18.58;91.41
76040;SHT30;64736;50.462;4.850;2023-06-22T15:51:24;18.57;91.34
76040;SHT30;64736;50.462;4.850;2023-06-22T15:53:49;18.62;91.32
76040;SHT30;64736;50.462;4.850;2023-06-22T15:56:15;18.52;91.47
76040;SHT30;64736;50.462;4.850;2023-06-22T15:58:41;18.59;91.24
76040;SHT30;64736;50.462;4.850;2023-06-22T16:01:07;18.51;91.24
76040;SHT30;64736;50.462;4.850;2023-06-22T16:03:34;18.54;91.10
76040;SHT30;64736;50.462;4.850;2023-06-22T16:06:00;18.54;91.62
76040;SHT30;64736;50.462;4.850;2023-06-22T16:08:26;18.58;91.15
76040;SHT30;64736;50.462;4.850;2023-06-22T16:10:57;18.65;91.11
76040;SHT30;64736;50.462;4.850;2023-06-22T16:13:23;18.38;90.93
76040;SHT30;64736;50.462;4.850;2023-06-22T16:15:48;18.40;90.26
76040;SHT30;64736;50.462;4.850;2023-06-22T16:18:14;18.38;90.45
76040;SHT30;64736;50.462;4.850;2023-06-22T16:20:41;18.34;90.03